sensor_id;sensor_type;location;lat;lon;timestamp;pressure;altitude;pressure_sealevel;temperature;humidity
60611;BME280;46439;51.164;13.572;2023-05-07T00:00:47;100304.98;;;10.86;100.00
60611;BME280;46439;51.164;13.572;2023-05-07T00:03:16;100304.05;;;10.87;100.00
60611;BME280;46439;51.164;13.572;2023-05-07T00:05:44;100305.67;;;10.89;100.00
60611;BME280;46439;51.164;13.572;2023-05-07T00:08:13;100306.65;;;10.88;100.00
60611;BME280;46439;51.164;13.572;2023-05-07T00:10:42;100314.15;;;10.86;100.00
60611;BME280;46439;51.164;13.572;2023-05-07T00:13:27;100318.17;;;10.83;100.00
60611;BME280;46439;51.164;13.572;2023-05-07T00:15:55;100309.89;;;10.82;100.00
60611;BME280;46439;51.164;13.572;2023-05-07T00:18:24;100310.71;;;10.86;100.00
60611;BME280;46439;51.164;13.572;2023-05-07T00:20:52;100313.23;;;10.84;100.00
60611;BME280;46439;51.164;13.572;2023-05-07T00:23:21;100318.00;;;10.85;100.00
60611;BME280;46439;51.164;13.572;2023-05-07T00:25:49;100316.74;;;10.83;100.00
60611;BME280;46439;51.164;13.572;2023-05-07T00:28:18;100314.83;;;10.87;100.00
60611;BME280;46439;51.164;13.572;2023-05-07T00:30:47;100312.48;;;10.92;100.00
60611;BME280;46439;51.164;13.572;2023-05-07T00:33:15;100314.88;;;10.92;100.00
60611;BME280;46439;51.164;13.572;2023-05-07T00:35:44;100323.36;;;10.92;100.00
60611;BME280;46439;51.164;13.572;2023-05-07T00:38:12;100322.85;;;10.91;100.00
60611;BME280;46439;51.164;13.572;2023-05-07T00:40:41;100317.69;;;10.89;100.00
60611;BME280;46439;51.164;13.572;2023-05-07T00:43:09;100312.77;;;10.87;100.00
60611;BME280;46439;51.164;13.572;2023-05-07T00:45:38;100309.36;;;10.88;100.00
60611;BME280;46439;51.164;13.572;2023-05-07T00:48:07;100307.85;;;10.90;100.00
60611;BME280;46439;51.164;13.572;2023-05-07T00:50:35;100304.67;;;10.94;100.00
60611;BME280;46439;51.164;13.572;2023-05-07T00:53:05;100310.05;;;10.93;100.00
60611;BME280;46439;51.164;13.572;2023-05-07T00:55:34;100311.77;;;10.89;100.00
60611;BME280;46439;51.164;13.572;2023-05-07T00:58:04;100310.96;;;10.91;100.00
60611;BME280;46439;51.164;13.572;2023-05-07T01:00:33;100309.98;;;10.90;100.00
60611;BME280;46439;51.164;13.572;2023-05-07T01:03:02;100305.36;;;10.90;100.00
60611;BME280;46439;51.164;13.572;2023-05-07T01:05:31;100304.64;;;10.95;100.00
60611;BME280;46439;51.164;13.572;2023-05-07T01:08:00;100298.04;;;11.03;100.00
60611;BME280;46439;51.164;13.572;2023-05-07T01:10:29;100305.12;;;11.05;100.00
60611;BME280;46439;51.164;13.572;2023-05-07T01:12:59;100305.36;;;11.05;100.00
60611;BME280;46439;51.164;13.572;2023-05-07T01:15:28;100308.50;;;11.02;100.00
60611;BME280;46439;51.164;13.572;2023-05-07T01:17:57;100305.73;;;11.00;100.00
60611;BME280;46439;51.164;13.572;2023-05-07T01:20:26;100308.22;;;10.95;100.00
60611;BME280;46439;51.164;13.572;2023-05-07T01:22:56;100314.11;;;10.91;100.00
60611;BME280;46439;51.164;13.572;2023-05-07T01:25:25;100314.58;;;10.94;100.00
60611;BME280;46439;51.164;13.572;2023-05-07T01:27:54;100307.27;;;11.01;100.00
60611;BME280;46439;51.164;13.572;2023-05-07T01:30:23;100311.15;;;10.96;100.00
60611;BME280;46439;51.164;13.572;2023-05-07T01:32:56;100315.45;;;10.94;100.00
60611;BME280;46439;51.164;13.572;2023-05-07T01:35:29;100311.99;;;10.98;100.00
60611;BME280;46439;51.164;13.572;2023-05-07T01:37:58;100309.33;;;11.02;100.00
60611;BME280;46439;51.164;13.572;2023-05-07T01:40:28;100316.33;;;11.06;100.00
60611;BME280;46439;51.164;13.572;2023-05-07T01:42:57;100320.34;;;11.07;100.00
60611;BME280;46439;51.164;13.572;2023-05-07T01:45:27;100320.94;;;11.10;100.00
60611;BME280;46439;51.164;13.572;2023-05-07T01:47:56;100314.54;;;11.10;100.00
60611;BME280;46439;51.164;13.572;2023-05-07T01:50:26;100315.90;;;11.05;100.00
60611;BME280;46439;51.164;13.572;2023-05-07T01:52:55;100312.36;;;11.02;100.00
60611;BME280;46439;51.164;13.572;2023-05-07T01:55:24;100313.36;;;10.91;100.00
60611;BME280;46439;51.164;13.572;2023-05-07T01:57:52;100311.52;;;10.87;100.00
60611;BME280;46439;51.164;13.572;2023-05-07T02:00:22;100313.52;;;10.86;100.00
60611;BME280;46439;51.164;13.572;2023-05-07T02:02:50;100316.09;;;10.79;100.00
60611;BME280;46439;51.164;13.572;2023-05-07T02:05:21;100321.23;;;10.79;100.00
60611;BME280;46439;51.164;13.572;2023-05-07T02:07:49;100326.35;;;10.79;100.00
60611;BME280;46439;51.164;13.572;2023-05-07T02:10:17;100324.02;;;10.79;100.00
60611;BME280;46439;51.164;13.572;2023-05-07T02:12:46;100328.42;;;10.77;100.00
60611;BME280;46439;51.164;13.572;2023-05-07T02:15:14;100328.14;;;10.74;100.00
60611;BME280;46439;51.164;13.572;2023-05-07T02:18:00;100330.71;;;10.69;100.00
60611;BME280;46439;51.164;13.572;2023-05-07T02:20:28;100335.08;;;10.66;100.00
60611;BME280;46439;51.164;13.572;2023-05-07T02:22:57;100339.59;;;10.70;100.00
60611;BME280;46439;51.164;13.572;2023-05-07T02:25:26;100342.17;;;10.74;100.00
60611;BME280;46439;51.164;13.572;2023-05-07T02:27:54;100335.05;;;10.75;100.00
60611;BME280;46439;51.164;13.572;2023-05-07T02:30:23;100336.75;;;10.75;100.00
60611;BME280;46439;51.164;13.572;2023-05-07T02:32:52;100339.55;;;10.71;100.00
60611;BME280;46439;51.164;13.572;2023-05-07T02:35:20;100335.16;;;10.73;100.00
60611;BME280;46439;51.164;13.572;2023-05-07T02:37:49;100338.92;;;10.65;100.00
60611;BME280;46439;51.164;13.572;2023-05-07T02:40:17;100341.38;;;10.57;100.00
60611;BME280;46439;51.164;13.572;2023-05-07T02:42:46;100340.10;;;10.54;100.00
60611;BME280;46439;51.164;13.572;2023-05-07T02:45:14;100340.91;;;10.53;100.00
60611;BME280;46439;51.164;13.572;2023-05-07T02:47:43;100336.32;;;10.56;100.00
60611;BME280;46439;51.164;13.572;2023-05-07T02:50:12;100335.41;;;10.53;100.00
60611;BME280;46439;51.164;13.572;2023-05-07T02:52:40;100337.37;;;10.51;100.00
60611;BME280;46439;51.164;13.572;2023-05-07T02:55:10;100341.89;;;10.40;100.00
60611;BME280;46439;51.164;13.572;2023-05-07T02:57:38;100346.17;;;10.33;100.00
60611;BME280;46439;51.164;13.572;2023-05-07T03:00:15;100345.77;;;10.32;100.00
60611;BME280;46439;51.164;13.572;2023-05-07T03:02:44;100344.48;;;10.37;100.00
60611;BME280;46439;51.164;13.572;2023-05-07T03:05:13;100344.42;;;10.36;100.00
60611;BME280;46439;51.164;13.572;2023-05-07T03:07:42;100343.94;;;10.35;100.00
60611;BME280;46439;51.164;13.572;2023-05-07T03:10:13;100339.99;;;10.39;100.00
60611;BME280;46439;51.164;13.572;2023-05-07T03:12:42;100341.31;;;10.33;100.00
60611;BME280;46439;51.164;13.572;2023-05-07T03:15:11;100340.44;;;10.33;100.00
60611;BME280;46439;51.164;13.572;2023-05-07T03:17:40;100339.66;;;10.38;100.00
60611;BME280;46439;51.164;13.572;2023-05-07T03:20:11;100343.19;;;10.43;100.00
60611;BME280;46439;51.164;13.572;2023-05-07T03:22:40;100341.80;;;10.44;100.00
60611;BME280;46439;51.164;13.572;2023-05-07T03:25:10;100351.95;;;10.42;100.00
60611;BME280;46439;51.164;13.572;2023-05-07T03:27:38;100351.27;;;10.44;100.00
60611;BME280;46439;51.164;13.572;2023-05-07T03:30:09;100352.45;;;10.42;100.00
60611;BME280;46439;51.164;13.572;2023-05-07T03:32:38;100357.58;;;10.41;100.00
60611;BME280;46439;51.164;13.572;2023-05-07T03:35:08;100354.50;;;10.38;100.00
60611;BME280;46439;51.164;13.572;2023-05-07T03:37:37;100354.20;;;10.37;100.00
60611;BME280;46439;51.164;13.572;2023-05-07T03:40:07;100356.19;;;10.39;100.00
60611;BME280;46439;51.164;13.572;2023-05-07T03:42:38;100358.04;;;10.40;100.00
60611;BME280;46439;51.164;13.572;2023-05-07T03:45:08;100360.14;;;10.41;100.00
60611;BME280;46439;51.164;13.572;2023-05-07T03:47:37;100361.46;;;10.43;100.00
60611;BME280;46439;51.164;13.572;2023-05-07T03:50:06;100360.91;;;10.43;100.00
60611;BME280;46439;51.164;13.572;2023-05-07T03:52:35;100359.20;;;10.41;100.00
60611;BME280;46439;51.164;13.572;2023-05-07T03:55:05;100363.71;;;10.44;100.00
60611;BME280;46439;51.164;13.572;2023-05-07T03:57:34;100365.75;;;10.45;100.00
60611;BME280;46439;51.164;13.572;2023-05-07T04:00:03;100367.84;;;10.49;100.00
60611;BME280;46439;51.164;13.572;2023-05-07T04:02:32;100369.09;;;10.52;100.00
60611;BME280;46439;51.164;13.572;2023-05-07T04:05:01;100365.30;;;10.54;100.00
60611;BME280;46439;51.164;13.572;2023-05-07T04:07:29;100365.23;;;10.55;100.00
60611;BME280;46439;51.164;13.572;2023-05-07T04:09:58;100364.74;;;10.53;100.00
60611;BME280;46439;51.164;13.572;2023-05-07T04:12:26;100366.93;;;10.46;100.00
60611;BME280;46439;51.164;13.572;2023-05-07T04:14:54;100366.89;;;10.40;100.00
60611;BME280;46439;51.164;13.572;2023-05-07T04:17:23;100369.21;;;10.33;100.00
60611;BME280;46439;51.164;13.572;2023-05-07T04:19:51;100367.48;;;10.31;100.00
60611;BME280;46439;51.164;13.572;2023-05-07T04:22:20;100374.23;;;10.28;100.00
60611;BME280;46439;51.164;13.572;2023-05-07T04:24:49;100371.66;;;10.29;100.00
60611;BME280;46439;51.164;13.572;2023-05-07T04:27:17;100380.17;;;10.32;100.00
60611;BME280;46439;51.164;13.572;2023-05-07T04:29:46;100381.14;;;10.33;100.00
60611;BME280;46439;51.164;13.572;2023-05-07T04:32:15;100385.20;;;10.30;100.00
60611;BME280;46439;51.164;13.572;2023-05-07T04:34:44;100390.63;;;10.30;100.00
60611;BME280;46439;51.164;13.572;2023-05-07T04:37:12;100393.90;;;10.33;100.00
60611;BME280;46439;51.164;13.572;2023-05-07T04:39:40;100398.72;;;10.33;100.00
60611;BME280;46439;51.164;13.572;2023-05-07T04:42:09;100400.80;;;10.27;100.00
60611;BME280;46439;51.164;13.572;2023-05-07T04:44:37;100400.20;;;10.26;100.00
60611;BME280;46439;51.164;13.572;2023-05-07T04:47:06;100397.39;;;10.25;100.00
60611;BME280;46439;51.164;13.572;2023-05-07T04:49:35;100401.17;;;10.22;100.00
60611;BME280;46439;51.164;13.572;2023-05-07T04:52:04;100402.81;;;10.18;100.00
60611;BME280;46439;51.164;13.572;2023-05-07T04:54:32;100406.35;;;10.19;100.00
60611;BME280;46439;51.164;13.572;2023-05-07T04:57:02;100407.52;;;10.23;100.00
60611;BME280;46439;51.164;13.572;2023-05-07T04:59:31;100409.14;;;10.26;100.00
60611;BME280;46439;51.164;13.572;2023-05-07T05:02:00;100412.58;;;10.31;100.00
60611;BME280;46439;51.164;13.572;2023-05-07T05:04:29;100411.77;;;10.34;100.00
60611;BME280;46439;51.164;13.572;2023-05-07T05:06:57;100411.79;;;10.42;100.00
60611;BME280;46439;51.164;13.572;2023-05-07T05:09:26;100410.42;;;10.47;100.00
60611;BME280;46439;51.164;13.572;2023-05-07T05:11:55;100417.27;;;10.46;100.00
60611;BME280;46439;51.164;13.572;2023-05-07T05:14:23;100418.75;;;10.46;100.00
60611;BME280;46439;51.164;13.572;2023-05-07T05:16:52;100414.59;;;10.43;100.00
60611;BME280;46439;51.164;13.572;2023-05-07T05:19:20;100412.16;;;10.37;100.00
60611;BME280;46439;51.164;13.572;2023-05-07T05:21:49;100410.27;;;10.31;100.00
60611;BME280;46439;51.164;13.572;2023-05-07T05:24:17;100411.80;;;10.30;100.00
60611;BME280;46439;51.164;13.572;2023-05-07T05:26:46;100411.48;;;10.30;100.00
60611;BME280;46439;51.164;13.572;2023-05-07T05:29:14;100411.89;;;10.31;100.00
60611;BME280;46439;51.164;13.572;2023-05-07T05:31:43;100417.64;;;10.33;100.00
60611;BME280;46439;51.164;13.572;2023-05-07T05:34:11;100423.96;;;10.37;100.00
60611;BME280;46439;51.164;13.572;2023-05-07T05:36:40;100432.32;;;10.45;100.00
60611;BME280;46439;51.164;13.572;2023-05-07T05:39:08;100437.19;;;10.52;100.00
60611;BME280;46439;51.164;13.572;2023-05-07T05:41:37;100442.26;;;10.60;100.00
60611;BME280;46439;51.164;13.572;2023-05-07T05:44:06;100439.77;;;10.63;100.00
60611;BME280;46439;51.164;13.572;2023-05-07T05:46:35;100439.59;;;10.60;100.00
60611;BME280;46439;51.164;13.572;2023-05-07T05:49:03;100444.17;;;10.57;100.00
60611;BME280;46439;51.164;13.572;2023-05-07T05:51:32;100444.88;;;10.54;100.00
60611;BME280;46439;51.164;13.572;2023-05-07T05:54:01;100447.02;;;10.44;100.00
60611;BME280;46439;51.164;13.572;2023-05-07T05:56:29;100449.24;;;10.47;100.00
60611;BME280;46439;51.164;13.572;2023-05-07T05:58:58;100451.59;;;10.45;100.00
60611;BME280;46439;51.164;13.572;2023-05-07T06:01:27;100455.43;;;10.48;100.00
60611;BME280;46439;51.164;13.572;2023-05-07T06:03:56;100457.55;;;10.53;100.00
60611;BME280;46439;51.164;13.572;2023-05-07T06:06:25;100459.35;;;10.56;100.00
60611;BME280;46439;51.164;13.572;2023-05-07T06:08:54;100460.11;;;10.66;100.00
60611;BME280;46439;51.164;13.572;2023-05-07T06:11:22;100460.01;;;10.66;100.00
60611;BME280;46439;51.164;13.572;2023-05-07T06:13:51;100468.86;;;10.68;100.00
60611;BME280;46439;51.164;13.572;2023-05-07T06:16:20;100472.03;;;10.69;100.00
60611;BME280;46439;51.164;13.572;2023-05-07T06:18:48;100477.14;;;10.75;100.00
60611;BME280;46439;51.164;13.572;2023-05-07T06:21:17;100478.64;;;10.86;100.00
60611;BME280;46439;51.164;13.572;2023-05-07T06:23:45;100472.62;;;10.95;100.00
60611;BME280;46439;51.164;13.572;2023-05-07T06:26:14;100470.02;;;10.98;100.00
60611;BME280;46439;51.164;13.572;2023-05-07T06:28:42;100469.65;;;11.03;100.00
60611;BME280;46439;51.164;13.572;2023-05-07T06:31:15;100461.39;;;11.03;100.00
60611;BME280;46439;51.164;13.572;2023-05-07T06:33:44;100466.38;;;11.05;100.00
60611;BME280;46439;51.164;13.572;2023-05-07T06:36:13;100468.93;;;11.06;100.00
60611;BME280;46439;51.164;13.572;2023-05-07T06:38:42;100473.16;;;11.07;100.00
60611;BME280;46439;51.164;13.572;2023-05-07T06:41:10;100475.96;;;11.11;100.00
60611;BME280;46439;51.164;13.572;2023-05-07T06:43:39;100479.01;;;11.09;100.00
60611;BME280;46439;51.164;13.572;2023-05-07T06:46:08;100486.46;;;11.07;100.00
60611;BME280;46439;51.164;13.572;2023-05-07T06:48:37;100488.42;;;11.07;100.00
60611;BME280;46439;51.164;13.572;2023-05-07T06:51:07;100488.63;;;11.12;100.00
60611;BME280;46439;51.164;13.572;2023-05-07T06:53:36;100493.39;;;11.16;100.00
60611;BME280;46439;51.164;13.572;2023-05-07T06:56:05;100496.84;;;11.18;100.00
60611;BME280;46439;51.164;13.572;2023-05-07T06:58:34;100495.08;;;11.19;100.00
60611;BME280;46439;51.164;13.572;2023-05-07T07:01:03;100495.88;;;11.18;100.00
60611;BME280;46439;51.164;13.572;2023-05-07T07:03:31;100495.52;;;11.15;100.00
60611;BME280;46439;51.164;13.572;2023-05-07T07:06:00;100497.27;;;11.18;100.00
60611;BME280;46439;51.164;13.572;2023-05-07T07:08:30;100495.18;;;11.21;100.00
60611;BME280;46439;51.164;13.572;2023-05-07T07:10:59;100498.16;;;11.27;100.00
60611;BME280;46439;51.164;13.572;2023-05-07T07:13:27;100498.09;;;11.24;100.00
60611;BME280;46439;51.164;13.572;2023-05-07T07:15:56;100501.73;;;11.30;100.00
60611;BME280;46439;51.164;13.572;2023-05-07T07:18:25;100496.42;;;11.36;100.00
60611;BME280;46439;51.164;13.572;2023-05-07T07:20:53;100500.95;;;11.38;100.00
60611;BME280;46439;51.164;13.572;2023-05-07T07:23:23;100499.58;;;11.38;100.00
60611;BME280;46439;51.164;13.572;2023-05-07T07:25:51;100497.89;;;11.45;100.00
60611;BME280;46439;51.164;13.572;2023-05-07T07:28:22;100499.52;;;11.45;100.00
60611;BME280;46439;51.164;13.572;2023-05-07T07:30:50;100500.04;;;11.55;100.00
60611;BME280;46439;51.164;13.572;2023-05-07T07:33:19;100502.20;;;11.55;100.00
60611;BME280;46439;51.164;13.572;2023-05-07T07:35:48;100499.02;;;11.56;100.00
60611;BME280;46439;51.164;13.572;2023-05-07T07:38:16;100501.05;;;11.56;100.00
60611;BME280;46439;51.164;13.572;2023-05-07T07:40:47;100504.48;;;11.54;100.00
60611;BME280;46439;51.164;13.572;2023-05-07T07:43:15;100503.76;;;11.59;100.00
60611;BME280;46439;51.164;13.572;2023-05-07T07:45:44;100504.91;;;11.68;100.00
60611;BME280;46439;51.164;13.572;2023-05-07T07:48:14;100504.98;;;11.77;100.00
60611;BME280;46439;51.164;13.572;2023-05-07T07:50:42;100507.59;;;11.80;100.00
60611;BME280;46439;51.164;13.572;2023-05-07T07:53:11;100513.80;;;11.84;100.00
60611;BME280;46439;51.164;13.572;2023-05-07T07:55:41;100517.64;;;11.88;100.00
60611;BME280;46439;51.164;13.572;2023-05-07T07:58:10;100516.52;;;11.90;100.00
60611;BME280;46439;51.164;13.572;2023-05-07T08:00:38;100519.66;;;11.87;100.00
60611;BME280;46439;51.164;13.572;2023-05-07T08:03:07;100518.54;;;11.85;100.00
60611;BME280;46439;51.164;13.572;2023-05-07T08:05:37;100516.42;;;11.80;100.00
60611;BME280;46439;51.164;13.572;2023-05-07T08:08:07;100522.11;;;11.76;100.00
60611;BME280;46439;51.164;13.572;2023-05-07T08:10:36;100525.45;;;11.78;100.00
60611;BME280;46439;51.164;13.572;2023-05-07T08:13:06;100530.76;;;11.79;100.00
60611;BME280;46439;51.164;13.572;2023-05-07T08:15:35;100536.30;;;11.83;100.00
60611;BME280;46439;51.164;13.572;2023-05-07T08:18:04;100534.94;;;11.82;100.00
60611;BME280;46439;51.164;13.572;2023-05-07T08:20:33;100541.86;;;11.84;100.00
60611;BME280;46439;51.164;13.572;2023-05-07T08:23:07;100543.72;;;11.89;100.00
60611;BME280;46439;51.164;13.572;2023-05-07T08:25:37;100542.70;;;11.88;100.00
60611;BME280;46439;51.164;13.572;2023-05-07T08:28:06;100542.61;;;11.86;100.00
60611;BME280;46439;51.164;13.572;2023-05-07T08:30:36;100544.98;;;11.87;100.00
60611;BME280;46439;51.164;13.572;2023-05-07T08:33:05;100547.95;;;11.88;100.00
60611;BME280;46439;51.164;13.572;2023-05-07T08:35:34;100545.41;;;11.88;100.00
60611;BME280;46439;51.164;13.572;2023-05-07T08:38:03;100540.90;;;11.90;100.00
60611;BME280;46439;51.164;13.572;2023-05-07T08:40:36;100540.33;;;11.90;100.00
60611;BME280;46439;51.164;13.572;2023-05-07T08:43:07;100542.86;;;11.93;100.00
60611;BME280;46439;51.164;13.572;2023-05-07T08:45:36;100541.92;;;12.02;100.00
60611;BME280;46439;51.164;13.572;2023-05-07T08:48:14;100536.84;;;12.15;100.00
60611;BME280;46439;51.164;13.572;2023-05-07T08:50:44;100543.23;;;12.20;100.00
60611;BME280;46439;51.164;13.572;2023-05-07T08:53:13;100543.24;;;12.20;100.00
60611;BME280;46439;51.164;13.572;2023-05-07T08:55:44;100546.98;;;12.25;100.00
60611;BME280;46439;51.164;13.572;2023-05-07T08:58:13;100550.37;;;12.27;100.00
60611;BME280;46439;51.164;13.572;2023-05-07T09:00:43;100552.07;;;12.32;100.00
60611;BME280;46439;51.164;13.572;2023-05-07T09:03:12;100553.50;;;12.36;100.00
60611;BME280;46439;51.164;13.572;2023-05-07T09:05:42;100552.92;;;12.37;100.00
60611;BME280;46439;51.164;13.572;2023-05-07T09:08:16;100555.58;;;12.34;100.00
60611;BME280;46439;51.164;13.572;2023-05-07T09:10:46;100560.54;;;12.30;100.00
60611;BME280;46439;51.164;13.572;2023-05-07T09:13:16;100562.17;;;12.28;100.00
60611;BME280;46439;51.164;13.572;2023-05-07T09:15:47;100565.55;;;12.29;100.00
60611;BME280;46439;51.164;13.572;2023-05-07T09:18:15;100569.69;;;12.34;100.00
60611;BME280;46439;51.164;13.572;2023-05-07T09:20:44;100575.63;;;12.37;100.00
60611;BME280;46439;51.164;13.572;2023-05-07T09:23:13;100577.55;;;12.41;100.00
60611;BME280;46439;51.164;13.572;2023-05-07T09:25:56;100576.70;;;12.34;100.00
60611;BME280;46439;51.164;13.572;2023-05-07T09:28:28;100575.42;;;12.31;100.00
60611;BME280;46439;51.164;13.572;2023-05-07T09:30:57;100574.26;;;12.35;100.00
60611;BME280;46439;51.164;13.572;2023-05-07T09:33:28;100571.59;;;12.39;100.00
60611;BME280;46439;51.164;13.572;2023-05-07T09:35:58;100574.09;;;12.43;100.00
60611;BME280;46439;51.164;13.572;2023-05-07T09:38:27;100575.46;;;12.45;100.00
60611;BME280;46439;51.164;13.572;2023-05-07T09:41:05;100576.39;;;12.51;100.00
60611;BME280;46439;51.164;13.572;2023-05-07T09:43:35;100580.20;;;12.53;100.00
60611;BME280;46439;51.164;13.572;2023-05-07T09:46:08;100579.15;;;12.47;100.00
60611;BME280;46439;51.164;13.572;2023-05-07T09:48:40;100577.04;;;12.44;100.00
60611;BME280;46439;51.164;13.572;2023-05-07T09:51:15;100578.60;;;12.49;100.00
60611;BME280;46439;51.164;13.572;2023-05-07T09:53:47;100583.94;;;12.48;100.00
60611;BME280;46439;51.164;13.572;2023-05-07T09:56:17;100586.02;;;12.45;100.00
60611;BME280;46439;51.164;13.572;2023-05-07T09:58:46;100589.57;;;12.49;100.00
60611;BME280;46439;51.164;13.572;2023-05-07T10:01:15;100593.52;;;12.48;100.00
60611;BME280;46439;51.164;13.572;2023-05-07T10:03:45;100588.36;;;12.44;100.00
60611;BME280;46439;51.164;13.572;2023-05-07T10:06:16;100592.20;;;12.44;100.00
60611;BME280;46439;51.164;13.572;2023-05-07T10:08:45;100594.31;;;12.47;100.00
60611;BME280;46439;51.164;13.572;2023-05-07T10:11:14;100592.02;;;12.45;100.00
60611;BME280;46439;51.164;13.572;2023-05-07T10:13:45;100593.17;;;12.45;100.00
60611;BME280;46439;51.164;13.572;2023-05-07T10:16:15;100592.93;;;12.45;100.00
60611;BME280;46439;51.164;13.572;2023-05-07T10:18:44;100595.42;;;12.39;100.00
60611;BME280;46439;51.164;13.572;2023-05-07T10:21:18;100592.63;;;12.45;100.00
60611;BME280;46439;51.164;13.572;2023-05-07T10:23:50;100596.73;;;12.53;100.00
60611;BME280;46439;51.164;13.572;2023-05-07T10:26:21;100597.02;;;12.56;100.00
60611;BME280;46439;51.164;13.572;2023-05-07T10:28:56;100599.98;;;12.60;100.00
60611;BME280;46439;51.164;13.572;2023-05-07T10:31:42;100590.61;;;12.72;100.00
60611;BME280;46439;51.164;13.572;2023-05-07T10:34:16;100593.13;;;12.83;100.00
60611;BME280;46439;51.164;13.572;2023-05-07T10:36:47;100590.34;;;12.92;100.00
60611;BME280;46439;51.164;13.572;2023-05-07T10:39:17;100591.23;;;13.01;100.00
60611;BME280;46439;51.164;13.572;2023-05-07T10:41:46;100583.93;;;13.12;100.00
60611;BME280;46439;51.164;13.572;2023-05-07T10:44:26;100581.60;;;13.24;100.00
60611;BME280;46439;51.164;13.572;2023-05-07T10:47:07;100581.98;;;13.31;100.00
60611;BME280;46439;51.164;13.572;2023-05-07T10:49:38;100574.55;;;13.34;100.00
60611;BME280;46439;51.164;13.572;2023-05-07T10:52:26;100575.79;;;13.33;100.00
60611;BME280;46439;51.164;13.572;2023-05-07T10:55:22;100576.36;;;13.31;100.00
60611;BME280;46439;51.164;13.572;2023-05-07T10:57:53;100574.30;;;13.32;100.00
60611;BME280;46439;51.164;13.572;2023-05-07T11:00:42;100582.20;;;13.32;100.00
60611;BME280;46439;51.164;13.572;2023-05-07T11:03:11;100583.41;;;13.33;100.00
60611;BME280;46439;51.164;13.572;2023-05-07T11:05:41;100587.71;;;13.33;100.00
60611;BME280;46439;51.164;13.572;2023-05-07T11:08:10;100584.54;;;13.31;100.00
60611;BME280;46439;51.164;13.572;2023-05-07T11:10:53;100584.59;;;13.28;100.00
60611;BME280;46439;51.164;13.572;2023-05-07T11:13:42;100584.05;;;13.25;100.00
60611;BME280;46439;51.164;13.572;2023-05-07T11:16:20;100578.70;;;13.33;100.00
60611;BME280;46439;51.164;13.572;2023-05-07T11:18:50;100578.29;;;13.38;100.00
60611;BME280;46439;51.164;13.572;2023-05-07T11:21:35;100576.89;;;13.43;100.00
60611;BME280;46439;51.164;13.572;2023-05-07T11:24:09;100576.05;;;13.54;100.00
60611;BME280;46439;51.164;13.572;2023-05-07T11:26:47;100574.83;;;13.62;100.00
60611;BME280;46439;51.164;13.572;2023-05-07T11:29:18;100568.34;;;13.67;100.00
60611;BME280;46439;51.164;13.572;2023-05-07T11:31:51;100573.89;;;13.61;100.00
60611;BME280;46439;51.164;13.572;2023-05-07T11:34:24;100569.05;;;13.62;100.00
60611;BME280;46439;51.164;13.572;2023-05-07T11:36:54;100568.25;;;13.69;100.00
60611;BME280;46439;51.164;13.572;2023-05-07T11:39:29;100567.98;;;13.80;100.00
60611;BME280;46439;51.164;13.572;2023-05-07T11:42:00;100567.26;;;13.85;100.00
60611;BME280;46439;51.164;13.572;2023-05-07T11:44:43;100565.98;;;13.97;100.00
60611;BME280;46439;51.164;13.572;2023-05-07T11:47:13;100568.08;;;14.10;100.00
60611;BME280;46439;51.164;13.572;2023-05-07T11:49:47;100570.00;;;14.16;100.00
60611;BME280;46439;51.164;13.572;2023-05-07T11:52:17;100564.85;;;14.24;100.00
60611;BME280;46439;51.164;13.572;2023-05-07T11:54:51;100561.62;;;14.34;100.00
60611;BME280;46439;51.164;13.572;2023-05-07T11:57:21;100559.81;;;14.47;100.00
60611;BME280;46439;51.164;13.572;2023-05-07T11:59:54;100559.08;;;14.62;100.00
60611;BME280;46439;51.164;13.572;2023-05-07T12:02:23;100563.42;;;14.67;100.00
60611;BME280;46439;51.164;13.572;2023-05-07T12:04:53;100562.08;;;14.65;100.00
60611;BME280;46439;51.164;13.572;2023-05-07T12:07:23;100564.23;;;14.63;100.00
60611;BME280;46439;51.164;13.572;2023-05-07T12:09:52;100569.08;;;14.60;100.00
60611;BME280;46439;51.164;13.572;2023-05-07T12:12:21;100574.27;;;14.58;100.00
60611;BME280;46439;51.164;13.572;2023-05-07T12:14:50;100571.91;;;14.63;100.00
60611;BME280;46439;51.164;13.572;2023-05-07T12:17:20;100573.96;;;14.59;100.00
60611;BME280;46439;51.164;13.572;2023-05-07T12:19:51;100572.65;;;14.61;100.00
60611;BME280;46439;51.164;13.572;2023-05-07T12:22:21;100572.59;;;14.63;100.00
60611;BME280;46439;51.164;13.572;2023-05-07T12:24:56;100570.95;;;14.70;100.00
60611;BME280;46439;51.164;13.572;2023-05-07T12:27:25;100570.04;;;14.81;100.00
60611;BME280;46439;51.164;13.572;2023-05-07T12:29:54;100569.20;;;14.85;100.00
60611;BME280;46439;51.164;13.572;2023-05-07T12:32:25;100576.44;;;14.85;100.00
60611;BME280;46439;51.164;13.572;2023-05-07T12:34:54;100579.34;;;14.83;100.00
60611;BME280;46439;51.164;13.572;2023-05-07T12:37:26;100579.23;;;14.81;100.00
60611;BME280;46439;51.164;13.572;2023-05-07T12:40:08;100580.14;;;14.84;100.00
60611;BME280;46439;51.164;13.572;2023-05-07T12:42:40;100582.23;;;14.93;100.00
60611;BME280;46439;51.164;13.572;2023-05-07T12:45:13;100573.20;;;15.02;100.00